Time;durP1;ratioP1;P1;durP2;ratioP2;P2;SDS_P1;SDS_P2;PMS_P1;PMS_P2;Temp;Humidity;BMP_temperature;BMP_pressure;BME280_temperature;BME280_humidity;BME280_pressure;Samples;Min_cycle;Max_cycle;Signal;HPM_P1;HPM_P2
2023/07/15 00:01:52;;;;;;;11.85;4.55;;;27.20;68.50;;;;;;5025644;28;20474;-57
2023/07/15 00:04:18;;;;;;;14.07;4.28;;;27.20;68.60;;;;;;5005377;28;20046;-57
2023/07/15 00:06:44;;;;;;;10.63;4.53;;;27.10;68.60;;;;;;5005892;28;20048;-57
2023/07/15 00:09:10;;;;;;;11.25;4.78;;;27.10;68.60;;;;;;5006974;28;20033;-57
2023/07/15 00:11:37;;;;;;;18.75;4.72;;;27.10;68.70;;;;;;5006778;28;20030;-57
2023/07/15 00:14:04;;;;;;;13.20;4.88;;;27.00;68.80;;;;;;5022793;28;20034;-57
2023/07/15 00:16:30;;;;;;;14.35;4.40;;;27.00;68.90;;;;;;5011820;28;20033;-57
2023/07/15 00:18:56;;;;;;;9.60;4.97;;;27.00;69.10;;;;;;5024844;28;20029;-57
2023/07/15 00:21:23;;;;;;;13.68;5.10;;;27.00;69.20;;;;;;5020080;28;20062;-57
2023/07/15 00:23:55;;;;;;;10.73;4.60;;;27.00;69.30;;;;;;5022261;28;20034;-57
2023/07/15 00:26:25;;;;;;;9.52;4.65;;;27.00;69.30;;;;;;5007452;28;20037;-57
2023/07/15 00:28:50;;;;;;;8.48;4.57;;;27.00;69.40;;;;;;5014293;28;20034;-56
2023/07/15 00:31:17;;;;;;;10.40;4.30;;;26.90;69.50;;;;;;5016053;28;20034;-55
2023/07/15 00:33:43;;;;;;;7.30;4.13;;;26.90;69.50;;;;;;5007350;28;20025;-57
2023/07/15 00:36:09;;;;;;;9.43;3.97;;;26.90;69.60;;;;;;5023239;28;20652;-56
2023/07/15 00:38:34;;;;;;;9.35;4.40;;;26.90;69.70;;;;;;5024505;28;20022;-57
2023/07/15 00:41:00;;;;;;;8.05;4.28;;;26.80;69.70;;;;;;5025571;28;20053;-56
2023/07/15 00:46:19;;;;;;;5.43;4.05;;;26.80;69.90;;;;;;5025036;28;20033;-57
2023/07/15 00:49:25;;;;;;;8.13;3.85;;;26.70;69.90;;;;;;5026342;28;20033;-57
2023/07/15 00:52:12;;;;;;;7.68;4.10;;;26.70;69.90;;;;;;5025309;28;20058;-57
2023/07/15 00:54:40;;;;;;;5.70;3.83;;;26.60;70.00;;;;;;5007797;28;20133;-57
2023/07/15 00:57:06;;;;;;;9.25;3.90;;;26.60;70.10;;;;;;5008542;28;20038;-57
2023/07/15 00:59:31;;;;;;;6.60;3.90;;;26.60;70.20;;;;;;5008498;28;20030;-57
2023/07/15 01:01:57;;;;;;;8.30;3.83;;;26.60;70.40;;;;;;5024564;28;20121;-57
2023/07/15 01:04:23;;;;;;;7.85;3.80;;;26.60;70.40;;;;;;5010482;28;20026;-57
2023/07/15 01:06:48;;;;;;;10.23;3.92;;;26.60;70.50;;;;;;5012625;28;20037;-57
2023/07/15 01:09:14;;;;;;;4.47;3.28;;;26.50;70.50;;;;;;5024145;28;20018;-57
2023/07/15 01:11:40;;;;;;;5.60;3.60;;;26.50;71.30;;;;;;5019300;28;20034;-57
2023/07/15 01:14:06;;;;;;;6.28;3.72;;;26.50;71.40;;;;;;5029419;28;20029;-57
2023/07/15 01:16:32;;;;;;;4.65;3.53;;;26.40;70.70;;;;;;5029939;28;20026;-57
2023/07/15 01:18:57;;;;;;;8.13;3.63;;;26.40;70.80;;;;;;5027152;28;20080;-57
2023/07/15 01:21:25;;;;;;;4.38;3.38;;;26.40;70.80;;;;;;5028548;28;20030;-57
2023/07/15 01:23:50;;;;;;;4.93;3.40;;;26.40;70.90;;;;;;4994578;28;20031;-58
2023/07/15 01:26:16;;;;;;;6.80;3.53;;;26.30;71.00;;;;;;5026198;28;20501;-58
2023/07/15 01:28:41;;;;;;;7.20;4.10;;;26.30;71.10;;;;;;5027895;28;20470;-57
2023/07/15 01:31:07;;;;;;;6.05;3.33;;;26.30;71.20;;;;;;4998887;28;20041;-57
2023/07/15 01:33:32;;;;;;;4.47;3.45;;;26.30;71.20;;;;;;5000691;28;20057;-57
2023/07/15 01:35:58;;;;;;;4.40;3.35;;;26.20;71.20;;;;;;5016774;28;20041;-57
2023/07/15 01:38:23;;;;;;;4.00;3.35;;;26.20;71.20;;;;;;5024466;28;20033;-57
2023/07/15 01:40:49;;;;;;;4.78;3.00;;;26.20;71.30;;;;;;5027403;28;20053;-58
2023/07/15 01:43:15;;;;;;;6.22;3.15;;;26.20;71.30;;;;;;5021269;28;20049;-57
2023/07/15 01:45:40;;;;;;;5.90;3.10;;;26.20;71.40;;;;;;5019972;28;20030;-57
2023/07/15 01:48:09;;;;;;;4.13;3.00;;;26.20;71.50;;;;;;5019902;28;20030;-58
2023/07/15 01:50:35;;;;;;;6.93;3.17;;;26.20;71.70;;;;;;5019637;28;20038;-57
2023/07/15 01:53:01;;;;;;;8.18;3.22;;;26.20;71.70;;;;;;5030335;28;20029;-57
2023/07/15 01:55:26;;;;;;;12.27;3.00;;;26.10;72.40;;;;;;5028882;28;20038;-57
2023/07/15 01:57:53;;;;;;;6.80;3.00;;;26.10;71.80;;;;;;5029228;28;20014;-57
2023/07/15 02:00:20;;;;;;;6.35;3.10;;;26.10;72.00;;;;;;5026162;28;20117;-57
2023/07/15 02:02:46;;;;;;;4.38;3.25;;;26.00;71.90;;;;;;5021751;28;20398;-57
2023/07/15 02:05:11;;;;;;;5.60;2.90;;;26.00;72.00;;;;;;5003599;28;20040;-57
2023/07/15 02:07:37;;;;;;;6.20;2.88;;;26.00;72.10;;;;;;5028437;28;20363;-57
2023/07/15 02:10:03;;;;;;;5.88;2.65;;;26.00;72.20;;;;;;5027680;28;20041;-57
2023/07/15 02:12:28;;;;;;;6.75;2.97;;;25.90;72.20;;;;;;5027199;28;20470;-57
2023/07/15 02:14:54;;;;;;;5.93;3.13;;;25.90;72.30;;;;;;5027986;28;20156;-57
2023/07/15 02:17:23;;;;;;;3.30;2.70;;;25.90;72.30;;;;;;5028161;28;20378;-57
2023/07/15 02:19:52;;;;;;;3.85;2.67;;;25.90;72.40;;;;;;5039567;28;20030;-57
2023/07/15 02:22:20;;;;;;;3.55;2.70;;;25.80;72.50;;;;;;5027962;28;20041;-57
2023/07/15 02:24:47;;;;;;;4.70;3.00;;;25.90;72.60;;;;;;5008734;28;20042;-57
2023/07/15 02:27:12;;;;;;;3.80;2.80;;;25.80;72.60;;;;;;5010496;28;20033;-57
2023/07/15 02:29:38;;;;;;;5.45;2.75;;;25.80;72.70;;;;;;5026501;28;20034;-57
2023/07/15 02:32:05;;;;;;;2.80;2.60;;;25.80;72.70;;;;;;5028353;28;20109;-57
2023/07/15 02:34:30;;;;;;;4.45;2.97;;;25.80;72.80;;;;;;5027908;28;20040;-57
2023/07/15 02:36:56;;;;;;;5.63;2.80;;;25.70;72.90;;;;;;5026560;28;20057;-57
2023/07/15 02:39:21;;;;;;;4.40;2.70;;;25.70;72.90;;;;;;5008643;28;20026;-57
2023/07/15 02:41:47;;;;;;;3.08;2.70;;;25.70;73.00;;;;;;5027924;28;20091;-57
2023/07/15 02:44:12;;;;;;;4.18;2.95;;;25.70;73.00;;;;;;5006858;28;20201;-57
2023/07/15 02:46:38;;;;;;;3.15;2.63;;;25.70;73.10;;;;;;5025894;28;20040;-57
2023/07/15 02:49:03;;;;;;;3.75;3.30;;;25.60;73.10;;;;;;5027629;28;20493;-57
2023/07/15 02:51:29;;;;;;;5.68;2.53;;;25.60;73.10;;;;;;5026759;28;20060;-57
2023/07/15 02:53:55;;;;;;;3.95;2.63;;;25.60;73.30;;;;;;5026290;28;20044;-57
2023/07/15 02:56:21;;;;;;;8.13;3.60;;;25.60;73.40;;;;;;5026448;28;20052;-57
2023/07/15 02:58:46;;;;;;;5.20;3.10;;;25.60;73.50;;;;;;5027555;28;20034;-57
2023/07/15 03:01:12;;;;;;;5.18;3.25;;;25.60;73.60;;;;;;5009720;28;20033;-57
2023/07/15 03:03:37;;;;;;;8.43;3.35;;;25.60;73.80;;;;;;5025920;28;20490;-57
2023/07/15 03:06:03;;;;;;;4.55;2.88;;;25.50;73.90;;;;;;5026780;28;20033;-57
2023/07/15 03:08:29;;;;;;;4.00;3.28;;;25.50;74.00;;;;;;5025688;28;20030;-57
2023/07/15 03:10:55;;;;;;;5.18;3.25;;;25.40;74.00;;;;;;5011155;28;20026;-57
2023/07/15 03:13:20;;;;;;;3.58;3.10;;;25.40;74.10;;;;;;5026583;28;20029;-57
2023/07/15 03:15:46;;;;;;;11.45;3.30;;;25.40;74.20;;;;;;5027338;28;20037;-57
2023/07/15 03:18:11;;;;;;;4.20;3.03;;;25.40;74.30;;;;;;5024891;28;20018;-57
2023/07/15 03:20:37;;;;;;;3.60;3.30;;;25.40;74.40;;;;;;5022700;28;20026;-57
2023/07/15 03:23:03;;;;;;;3.38;3.08;;;25.40;74.40;;;;;;5025984;28;20040;-57
2023/07/15 03:25:29;;;;;;;3.28;3.00;;;25.40;74.50;;;;;;5026200;28;20485;-57
2023/07/15 03:27:54;;;;;;;6.20;3.10;;;25.40;74.50;;;;;;5025435;28;20041;-57
2023/07/15 03:30:21;;;;;;;3.38;2.78;;;25.40;74.50;;;;;;5025718;28;20034;-57
2023/07/15 03:32:46;;;;;;;3.35;3.05;;;25.30;74.60;;;;;;5020657;28;20029;-57
2023/07/15 03:35:12;;;;;;;3.60;3.10;;;25.30;74.70;;;;;;5013009;28;20034;-57
2023/07/15 03:37:39;;;;;;;4.03;2.90;;;25.30;74.90;;;;;;5026792;28;20034;-58
2023/07/15 03:40:08;;;;;;;6.85;2.90;;;25.30;74.90;;;;;;5025548;28;20050;-57
2023/07/15 03:42:34;;;;;;;4.68;3.40;;;25.30;75.00;;;;;;5009167;28;20066;-57
2023/07/15 03:45:00;;;;;;;7.45;3.95;;;25.30;75.20;;;;;;5009581;28;20045;-57
2023/07/15 03:47:26;;;;;;;6.10;3.70;;;25.30;75.20;;;;;;5025234;28;20033;-57
2023/07/15 03:49:51;;;;;;;4.95;3.88;;;25.20;75.10;;;;;;5025117;28;20037;-57
2023/07/15 03:52:17;;;;;;;8.07;3.45;;;25.20;75.20;;;;;;5026861;28;20022;-57
2023/07/15 03:54:43;;;;;;;5.22;4.00;;;25.20;75.30;;;;;;5023279;28;20034;-57
2023/07/15 03:57:08;;;;;;;7.22;3.67;;;25.10;75.30;;;;;;5025321;28;20022;-57
2023/07/15 03:59:34;;;;;;;6.18;3.45;;;25.20;76.00;;;;;;5026553;28;20037;-57
2023/07/15 04:01:59;;;;;;;4.32;3.28;;;25.10;75.50;;;;;;5025670;28;20033;-57
2023/07/15 04:04:25;;;;;;;3.70;3.30;;;25.10;75.70;;;;;;5026148;28;20121;-57
2023/07/15 04:06:51;;;;;;;7.32;3.58;;;25.10;75.80;;;;;;5025621;28;20017;-57
2023/07/15 04:09:17;;;;;;;5.45;3.53;;;25.10;75.80;;;;;;5005602;28;20049;-57
2023/07/15 04:11:43;;;;;;;6.18;3.80;;;25.00;75.80;;;;;;5006592;28;20050;-57
2023/07/15 04:14:09;;;;;;;7.15;4.30;;;25.00;75.80;;;;;;5010985;28;20034;-57
2023/07/15 04:16:34;;;;;;;7.50;4.32;;;25.10;75.80;;;;;;5007593;28;20045;-57
2023/07/15 04:19:00;;;;;;;4.72;3.90;;;25.00;75.80;;;;;;5019012;28;20030;-57
2023/07/15 04:21:25;;;;;;;8.05;4.30;;;25.00;75.80;;;;;;5026627;28;20030;-57
2023/07/15 04:23:52;;;;;;;4.70;4.25;;;25.00;75.90;;;;;;5011907;28;20493;-56
2023/07/15 04:26:22;;;;;;;16.77;5.15;;;25.00;76.00;;;;;;5022432;28;20033;-57
2023/07/15 04:28:50;;;;;;;18.65;5.07;;;25.00;76.00;;;;;;5014035;28;20041;-56
2023/07/15 04:31:16;;;;;;;13.35;5.00;;;24.90;76.10;;;;;;5023946;28;20514;-57
2023/07/15 04:33:43;;;;;;;9.93;4.60;;;24.90;76.20;;;;;;5008675;28;20039;-57
2023/07/15 04:36:09;;;;;;;8.35;4.28;;;24.90;76.20;;;;;;5024319;28;20033;-57
2023/07/15 04:38:34;;;;;;;20.60;6.40;;;24.90;76.30;;;;;;5026894;28;20029;-57
2023/07/15 04:41:00;;;;;;;47.25;9.95;;;24.90;76.50;;;;;;5030990;28;20030;-57
2023/07/15 04:43:26;;;;;;;83.22;13.40;;;24.90;76.50;;;;;;5031704;28;20120;-57
2023/07/15 04:45:52;;;;;;;52.92;11.10;;;24.90;76.60;;;;;;5012250;28;20550;-56
2023/07/15 04:48:17;;;;;;;49.25;10.25;;;24.80;76.50;;;;;;5010158;28;20041;-57
2023/07/15 04:50:43;;;;;;;36.80;8.68;;;24.80;76.50;;;;;;5031101;28;20100;-57
2023/07/15 04:53:09;;;;;;;27.73;7.82;;;24.80;76.60;;;;;;5033003;28;20021;-57
2023/07/15 04:55:34;;;;;;;38.85;8.30;;;24.80;76.70;;;;;;5030586;28;20029;-57
2023/07/15 04:58:00;;;;;;;30.95;7.05;;;24.80;76.60;;;;;;5032209;28;20025;-57
2023/07/15 05:00:27;;;;;;;23.15;7.10;;;24.80;76.70;;;;;;5014450;28;20025;-57
2023/07/15 05:02:52;;;;;;;27.92;7.05;;;24.80;76.80;;;;;;5031153;28;20041;-57
2023/07/15 05:05:18;;;;;;;36.28;7.68;;;24.80;76.90;;;;;;5032791;28;20026;-57
2023/07/15 05:07:44;;;;;;;32.67;7.65;;;24.80;77.10;;;;;;5029508;28;20036;-57
2023/07/15 05:10:10;;;;;;;37.45;7.85;;;24.80;77.20;;;;;;5017808;28;20059;-57
2023/07/15 05:12:36;;;;;;;21.23;7.18;;;24.80;77.20;;;;;;5031301;28;20413;-57
2023/07/15 05:15:03;;;;;;;27.08;7.35;;;24.80;77.30;;;;;;5011400;28;20038;-57
2023/07/15 05:17:28;;;;;;;23.73;6.57;;;24.70;77.30;;;;;;5030986;28;20029;-57
2023/07/15 05:19:54;;;;;;;23.15;7.03;;;24.80;77.40;;;;;;5030382;28;20052;-57
2023/07/15 05:22:19;;;;;;;21.05;6.70;;;24.70;77.30;;;;;;5030370;28;20026;-58
2023/07/15 05:24:45;;;;;;;26.13;6.57;;;24.70;77.00;;;;;;5014157;28;20049;-57
2023/07/15 05:27:10;;;;;;;55.88;9.80;;;24.80;77.00;;;;;;5023608;28;20030;-57
2023/07/15 05:29:37;;;;;;;26.10;7.97;;;24.70;77.10;;;;;;5024587;28;20125;-57
2023/07/15 05:32:03;;;;;;;28.30;7.13;;;24.70;77.10;;;;;;5011492;28;20028;-57
2023/07/15 05:34:29;;;;;;;25.38;7.72;;;24.70;77.00;;;;;;5028536;28;20093;-57
2023/07/15 05:36:54;;;;;;;26.80;6.30;;;24.70;77.00;;;;;;5030593;28;20033;-57
2023/07/15 05:39:20;;;;;;;26.67;6.55;;;24.70;77.20;;;;;;5030748;28;20026;-57
2023/07/15 05:41:45;;;;;;;26.50;6.43;;;24.70;77.40;;;;;;5030685;28;20052;-57
2023/07/15 05:44:11;;;;;;;23.55;6.72;;;24.70;77.40;;;;;;5031420;28;20076;-57
2023/07/15 05:46:37;;;;;;;22.95;6.32;;;24.60;77.40;;;;;;5029153;28;20030;-57
2023/07/15 05:49:04;;;;;;;25.20;6.60;;;24.60;77.40;;;;;;5030697;28;20026;-57
2023/07/15 05:51:30;;;;;;;15.00;6.50;;;24.70;77.50;;;;;;5011583;28;20057;-57
2023/07/15 05:53:57;;;;;;;22.20;6.32;;;24.60;77.50;;;;;;5025662;28;20077;-57
2023/07/15 05:56:23;;;;;;;17.23;6.25;;;24.60;77.50;;;;;;5029166;28;20029;-57
2023/07/15 05:58:50;;;;;;;24.75;5.85;;;24.60;77.60;;;;;;5017408;28;20589;-57
2023/07/15 06:01:15;;;;;;;17.52;6.00;;;24.60;77.70;;;;;;5017190;28;20045;-57
2023/07/15 06:03:41;;;;;;;18.05;6.28;;;24.60;77.80;;;;;;5028356;28;20030;-57
2023/07/15 06:06:07;;;;;;;16.45;6.07;;;24.60;77.60;;;;;;5027951;28;20034;-57
2023/07/15 06:08:32;;;;;;;13.73;5.75;;;24.60;77.70;;;;;;5021101;28;20090;-57
2023/07/15 06:10:58;;;;;;;16.83;5.95;;;24.60;77.70;;;;;;5017508;28;20034;-57
2023/07/15 06:13:24;;;;;;;16.67;5.88;;;24.60;77.80;;;;;;5007469;28;20022;-57
2023/07/15 06:15:50;;;;;;;17.60;5.70;;;24.60;77.50;;;;;;5001590;28;20018;-57
2023/07/15 06:18:16;;;;;;;12.70;5.72;;;24.60;77.40;;;;;;5016830;28;20033;-57
2023/07/15 06:20:41;;;;;;;16.90;5.97;;;24.60;77.40;;;;;;5027464;28;20036;-57
2023/07/15 06:23:07;;;;;;;11.77;4.97;;;24.60;77.30;;;;;;5026835;28;20042;-57
2023/07/15 06:25:32;;;;;;;10.93;4.90;;;24.60;77.50;;;;;;5022412;28;20054;-57
2023/07/15 06:27:58;;;;;;;15.30;5.18;;;24.60;77.80;;;;;;5010701;28;20060;-57
2023/07/15 06:30:26;;;;;;;13.75;5.75;;;24.50;77.90;;;;;;5028439;28;20037;-57
2023/07/15 06:32:51;;;;;;;16.40;5.57;;;24.60;78.00;;;;;;5027161;28;20069;-57
2023/07/15 06:35:17;;;;;;;12.82;5.07;;;24.60;78.70;;;;;;5023413;28;20022;-57
2023/07/15 06:37:45;;;;;;;15.88;5.10;;;24.60;77.80;;;;;;5009911;28;20030;-57
2023/07/15 06:40:11;;;;;;;13.27;5.50;;;24.60;77.70;;;;;;5021485;28;20041;-57
2023/07/15 06:42:37;;;;;;;11.70;4.80;;;24.60;77.80;;;;;;5022604;28;20124;-57
2023/07/15 06:45:03;;;;;;;17.42;5.32;;;24.60;77.80;;;;;;5027668;28;20026;-57
2023/07/15 06:47:28;;;;;;;9.40;5.25;;;24.60;77.80;;;;;;5027533;28;20122;-57
2023/07/15 06:49:54;;;;;;;10.85;4.85;;;24.50;77.80;;;;;;5025593;28;20030;-57
2023/07/15 06:52:19;;;;;;;9.88;4.95;;;24.50;77.80;;;;;;5026007;28;20482;-57
2023/07/15 06:54:45;;;;;;;15.70;4.78;;;24.50;77.90;;;;;;5026456;28;20033;-57
2023/07/15 06:57:10;;;;;;;8.88;4.63;;;24.50;77.90;;;;;;5028089;28;20057;-57
2023/07/15 06:59:36;;;;;;;9.52;5.05;;;24.50;77.80;;;;;;5025611;28;20080;-57
2023/07/15 07:02:02;;;;;;;12.25;5.18;;;24.50;77.80;;;;;;5025651;28;20019;-57
2023/07/15 07:04:27;;;;;;;14.38;4.45;;;24.50;77.70;;;;;;5019027;28;20030;-57
2023/07/15 07:06:53;;;;;;;12.32;4.22;;;24.50;77.40;;;;;;5023262;28;20030;-57
2023/07/15 07:09:18;;;;;;;10.50;4.22;;;24.50;77.30;;;;;;5025509;28;20026;-57
2023/07/15 07:11:44;;;;;;;11.85;4.60;;;24.50;77.30;;;;;;5027166;28;20061;-57
2023/07/15 07:14:09;;;;;;;9.25;4.75;;;24.50;77.20;;;;;;5025819;28;20038;-57
2023/07/15 07:16:35;;;;;;;11.25;4.60;;;24.60;77.30;;;;;;5010081;28;20033;-57
2023/07/15 07:19:00;;;;;;;13.50;5.10;;;24.50;77.60;;;;;;5024536;28;20548;-57
2023/07/15 07:21:26;;;;;;;11.23;4.85;;;24.50;77.70;;;;;;5026300;28;20029;-57
2023/07/15 07:23:55;;;;;;;9.80;4.43;;;24.50;77.60;;;;;;5027168;28;20038;-57
2023/07/15 07:26:20;;;;;;;9.05;4.18;;;24.50;77.60;;;;;;5011620;28;20050;-57
2023/07/15 07:28:46;;;;;;;10.73;4.50;;;24.50;77.60;;;;;;5025071;28;20038;-57
2023/07/15 07:31:12;;;;;;;11.75;4.97;;;24.50;77.60;;;;;;5027268;28;20081;-57
2023/07/15 07:33:38;;;;;;;10.25;4.45;;;24.60;77.70;;;;;;5016844;28;20027;-57
2023/07/15 07:36:03;;;;;;;7.63;4.30;;;24.50;77.60;;;;;;5005984;28;20022;-57
2023/07/15 07:38:29;;;;;;;13.50;4.45;;;24.60;77.50;;;;;;5006348;28;20049;-57
2023/07/15 07:41:02;;;;;;;8.95;3.80;;;24.60;77.50;;;;;;4990051;28;20113;-56
2023/07/15 07:43:27;;;;;;;11.00;4.65;;;24.50;77.30;;;;;;5007661;28;20046;-57
2023/07/15 07:45:53;;;;;;;7.53;4.20;;;24.60;77.30;;;;;;5006253;28;20026;-57
2023/07/15 07:48:18;;;;;;;10.15;4.75;;;24.60;77.20;;;;;;5017401;28;20169;-57
2023/07/15 07:50:44;;;;;;;11.93;3.90;;;24.60;77.20;;;;;;5026755;28;20053;-57
2023/07/15 07:53:09;;;;;;;6.35;3.35;;;24.60;77.50;;;;;;5026120;28;20351;-57
2023/07/15 07:55:35;;;;;;;9.55;3.85;;;24.60;78.20;;;;;;5025770;28;20048;-57
2023/07/15 07:58:00;;;;;;;6.22;3.70;;;24.60;78.00;;;;;;5025241;28;20041;-57
2023/07/15 08:00:26;;;;;;;7.47;3.63;;;24.70;77.80;;;;;;5015676;28;20038;-57
2023/07/15 08:02:51;;;;;;;5.00;3.25;;;24.60;78.10;;;;;;5005628;28;20074;-57
2023/07/15 08:05:18;;;;;;;5.47;3.20;;;24.70;78.00;;;;;;4990035;28;20033;-57
2023/07/15 08:07:43;;;;;;;11.23;3.50;;;24.70;78.10;;;;;;5025873;28;20049;-57
2023/07/15 08:10:09;;;;;;;8.60;3.53;;;24.80;78.30;;;;;;5024678;28;20029;-57
2023/07/15 08:12:34;;;;;;;9.80;3.70;;;24.80;78.30;;;;;;5008078;28;20030;-57
2023/07/15 08:15:00;;;;;;;7.85;3.28;;;24.80;78.90;;;;;;5024900;28;20029;-57
2023/07/15 08:17:25;;;;;;;16.20;4.45;;;24.80;78.10;;;;;;5025057;28;20030;-57
2023/07/15 08:19:51;;;;;;;13.43;4.05;;;24.90;78.10;;;;;;5025125;28;20064;-57
2023/07/15 08:22:16;;;;;;;15.13;4.38;;;24.90;78.00;;;;;;5025564;28;20026;-57
2023/07/15 08:24:42;;;;;;;15.18;4.50;;;25.00;78.10;;;;;;5000288;28;20462;-57
2023/07/15 08:27:07;;;;;;;23.67;5.18;;;25.00;77.90;;;;;;5020121;28;20086;-57
2023/07/15 08:29:33;;;;;;;44.75;6.65;;;25.10;77.90;;;;;;5024488;28;20030;-57
2023/07/15 08:31:58;;;;;;;43.15;7.40;;;25.10;77.70;;;;;;5026179;28;20021;-56
2023/07/15 08:34:24;;;;;;;86.30;12.18;;;25.10;77.60;;;;;;5019476;28;20029;-57
2023/07/15 08:36:51;;;;;;;50.53;8.25;;;25.20;77.70;;;;;;5013519;28;20423;-57
2023/07/15 08:39:16;;;;;;;99.60;12.70;;;25.30;77.60;;;;;;5026182;28;20107;-57
2023/07/15 08:41:42;;;;;;;69.85;11.13;;;25.30;77.70;;;;;;5024513;28;20033;-57
2023/07/15 08:44:07;;;;;;;242.50;25.15;;;25.30;77.50;;;;;;5019022;28;20034;-57
2023/07/15 08:46:33;;;;;;;134.57;16.00;;;25.40;77.70;;;;;;5011841;28;20057;-57
2023/07/15 08:48:59;;;;;;;83.30;10.68;;;25.40;77.80;;;;;;5023521;28;20037;-57
2023/07/15 08:51:29;;;;;;;72.60;9.80;;;25.40;77.50;;;;;;5010395;28;20041;-57
2023/07/15 08:53:54;;;;;;;69.47;9.70;;;25.50;77.70;;;;;;5023076;28;20058;-57
2023/07/15 08:56:21;;;;;;;85.47;12.02;;;25.60;77.70;;;;;;5002833;28;20041;-58
2023/07/15 08:58:47;;;;;;;76.20;10.23;;;25.60;77.60;;;;;;5023871;28;20437;-57
2023/07/15 09:01:13;;;;;;;86.15;11.43;;;25.70;77.40;;;;;;5023818;28;20021;-57
2023/07/15 09:03:38;;;;;;;89.55;10.30;;;25.70;77.30;;;;;;5008672;28;20041;-57
2023/07/15 09:06:04;;;;;;;121.05;12.52;;;25.80;77.30;;;;;;5023858;28;20034;-57
2023/07/15 09:08:29;;;;;;;102.03;13.07;;;25.80;77.30;;;;;;5023894;28;20042;-57
2023/07/15 09:10:56;;;;;;;111.55;13.90;;;25.80;77.10;;;;;;5022950;28;20034;-57
2023/07/15 09:13:26;;;;;;;138.00;15.20;;;25.90;77.10;;;;;;5007545;28;20030;-57
2023/07/15 09:15:56;;;;;;;121.60;15.23;;;26.00;77.10;;;;;;5008033;28;20027;-57
2023/07/15 09:18:22;;;;;;;105.70;14.70;;;26.00;76.90;;;;;;5022512;28;20030;-57
2023/07/15 09:20:48;;;;;;;129.95;15.43;;;26.10;77.00;;;;;;5022583;28;20095;-57
2023/07/15 09:23:13;;;;;;;131.98;14.75;;;26.10;76.80;;;;;;5022505;28;20498;-57
2023/07/15 09:25:46;;;;;;;157.13;18.58;;;26.20;76.50;;;;;;5027131;28;20030;-57
2023/07/15 09:28:11;;;;;;;140.02;18.13;;;26.20;76.20;;;;;;5010903;28;20046;-57
2023/07/15 09:30:39;;;;;;;225.88;24.38;;;26.20;76.30;;;;;;5028676;28;20041;-57
2023/07/15 09:33:05;;;;;;;127.40;16.20;;;26.30;76.00;;;;;;5026705;28;20056;-57
2023/07/15 09:35:37;;;;;;;170.32;19.35;;;26.40;75.70;;;;;;5013351;28;20090;-57
2023/07/15 09:38:03;;;;;;;109.72;14.65;;;26.40;75.50;;;;;;5006847;28;20042;-57
2023/07/15 09:40:40;;;;;;;141.45;15.52;;;26.50;75.40;;;;;;5008007;28;20053;-58
2023/07/15 09:43:05;;;;;;;168.25;17.08;;;26.50;75.20;;;;;;5027875;28;20224;-57
2023/07/15 09:45:35;;;;;;;195.50;23.00;;;26.60;74.90;;;;;;5026933;28;20026;-57
2023/07/15 09:48:02;;;;;;;131.82;16.90;;;26.70;74.80;;;;;;5027628;28;20038;-57
2023/07/15 09:50:28;;;;;;;121.70;14.30;;;26.70;74.40;;;;;;4999443;28;20045;-57
2023/07/15 09:52:54;;;;;;;80.40;12.25;;;26.80;73.90;;;;;;5008125;28;20034;-57
2023/07/15 09:55:21;;;;;;;93.25;12.20;;;26.90;73.50;;;;;;5015516;28;20022;-57
2023/07/15 09:57:49;;;;;;;123.82;15.80;;;27.00;73.40;;;;;;5016437;28;20030;-57
2023/07/15 10:00:15;;;;;;;87.55;11.68;;;27.00;73.20;;;;;;5006539;28;20061;-57
2023/07/15 10:02:42;;;;;;;88.65;13.55;;;27.10;72.10;;;;;;5007838;28;20030;-57
2023/07/15 10:05:13;;;;;;;88.70;12.45;;;27.10;71.60;;;;;;5007710;28;20483;-57
2023/07/15 10:07:40;;;;;;;81.88;10.20;;;27.20;71.40;;;;;;5007965;28;20030;-57
2023/07/15 10:10:07;;;;;;;61.45;9.48;;;27.20;70.50;;;;;;5021170;28;20033;-57
2023/07/15 10:12:33;;;;;;;87.00;11.52;;;27.30;70.10;;;;;;5031172;28;20030;-57
2023/07/15 10:14:58;;;;;;;51.42;9.23;;;27.30;69.80;;;;;;5010323;28;20479;-57
2023/07/15 10:17:24;;;;;;;86.13;10.68;;;27.30;69.30;;;;;;5024958;28;20038;-57
2023/07/15 10:19:50;;;;;;;68.63;9.27;;;27.40;69.30;;;;;;5008985;28;20032;-57
2023/07/15 10:22:18;;;;;;;64.28;8.73;;;27.40;69.20;;;;;;5011184;28;20040;-57
2023/07/15 10:24:56;;;;;;;52.55;8.88;;;27.40;69.10;;;;;;5009224;28;20056;-57
2023/07/15 10:27:28;;;;;;;52.17;7.97;;;27.50;69.10;;;;;;5023326;28;20086;-57
2023/07/15 10:30:16;;;;;;;56.83;9.90;;;27.50;68.90;;;;;;5005375;28;20030;-57
2023/07/15 10:33:08;;;;;;;42.97;7.63;;;27.60;68.90;;;;;;5030309;28;20478;-57
2023/07/15 10:35:35;;;;;;;51.50;8.20;;;27.60;68.40;;;;;;5023154;28;20065;-57
2023/07/15 10:38:31;;;;;;;47.88;6.47;;;27.70;68.30;;;;;;5001152;28;20795;-57
2023/07/15 10:41:02;;;;;;;;;;;27.70;67.90;;;;;;5012246;28;20038;-56
2023/07/15 10:43:45;;;;;;;31.83;6.45;;;27.70;67.50;;;;;;5025291;28;19913;-57
2023/07/15 10:46:12;;;;;;;25.52;5.97;;;27.80;67.60;;;;;;5023857;28;20037;-57
2023/07/15 10:48:38;;;;;;;29.67;5.40;;;27.90;67.30;;;;;;5025301;28;20061;-57
2023/07/15 10:51:10;;;;;;;55.28;6.90;;;28.00;67.20;;;;;;5013067;28;20030;-57
2023/07/15 10:53:36;;;;;;;28.73;5.90;;;28.00;66.80;;;;;;5011282;28;20057;-57
2023/07/15 10:56:03;;;;;;;31.38;6.20;;;28.10;66.50;;;;;;5009728;28;20062;-57
2023/07/15 10:58:32;;;;;;;35.55;5.45;;;28.20;66.10;;;;;;5015097;28;20034;-57
2023/07/15 11:00:59;;;;;;;44.00;6.20;;;28.20;65.80;;;;;;5035263;28;20048;-57
2023/07/15 11:03:25;;;;;;;52.55;7.18;;;28.30;65.60;;;;;;5008405;28;20035;-57
2023/07/15 11:05:50;;;;;;;36.83;6.47;;;28.40;65.50;;;;;;5015673;28;20041;-57
2023/07/15 11:08:19;;;;;;;34.40;6.20;;;28.50;65.20;;;;;;5014965;28;20095;-57
2023/07/15 11:10:45;;;;;;;49.10;6.57;;;28.60;65.20;;;;;;5020421;28;20025;-57
2023/07/15 11:13:14;;;;;;;44.78;6.90;;;28.70;65.60;;;;;;5026038;28;20100;-57
2023/07/15 11:15:40;;;;;;;44.85;7.25;;;28.80;65.70;;;;;;5025836;28;20478;-57
2023/07/15 11:18:06;;;;;;;55.65;7.88;;;28.90;65.90;;;;;;5023942;28;20069;-56
2023/07/15 11:20:33;;;;;;;45.35;6.95;;;29.00;66.20;;;;;;5021863;28;20034;-57
2023/07/15 11:22:59;;;;;;;47.22;7.63;;;29.10;66.80;;;;;;5017697;28;20478;-57
2023/07/15 11:25:25;;;;;;;55.88;8.13;;;29.20;66.00;;;;;;5013651;28;20034;-57
2023/07/15 11:27:50;;;;;;;45.22;7.75;;;29.30;66.10;;;;;;5024740;28;20033;-57
2023/07/15 11:30:16;;;;;;;68.65;9.80;;;29.40;66.10;;;;;;5016579;28;20034;-57
2023/07/15 11:32:41;;;;;;;66.13;9.00;;;29.50;66.20;;;;;;5025539;28;20044;-57
2023/07/15 11:35:12;;;;;;;71.47;9.82;;;29.60;66.20;;;;;;5025795;28;20033;-57
2023/07/15 11:37:44;;;;;;;54.08;8.27;;;29.70;66.30;;;;;;5027082;28;20600;-57
2023/07/15 11:40:19;;;;;;;44.88;7.65;;;29.70;66.20;;;;;;5028442;28;20026;-57
2023/07/15 11:42:44;;;;;;;73.47;8.67;;;29.80;65.80;;;;;;5026111;28;20556;-56
2023/07/15 11:45:10;;;;;;;46.33;8.32;;;29.90;65.80;;;;;;5026199;28;20292;-57
2023/07/15 11:47:36;;;;;;;63.50;8.43;;;30.00;65.80;;;;;;5014969;28;20038;-57
2023/07/15 11:50:05;;;;;;;52.65;7.72;;;30.00;65.70;;;;;;5024650;28;20034;-57
2023/07/15 11:52:41;;;;;;;71.28;9.95;;;30.10;65.30;;;;;;5009722;28;20048;-57
2023/07/15 11:55:07;;;;;;;69.68;10.90;;;30.20;65.30;;;;;;5024005;28;20026;-57
2023/07/15 11:57:40;;;;;;;143.50;18.25;;;30.30;65.20;;;;;;5027151;28;20030;-57
2023/07/15 12:00:08;;;;;;;106.82;15.20;;;30.40;65.10;;;;;;5010032;28;20026;-57
2023/07/15 12:02:34;;;;;;;87.88;12.02;;;30.40;64.60;;;;;;5008884;28;20068;-57
2023/07/15 12:04:59;;;;;;;74.70;11.23;;;30.50;64.00;;;;;;5020624;28;20030;-57
2023/07/15 12:07:25;;;;;;;98.63;12.27;;;30.60;63.60;;;;;;5016430;28;20034;-57
2023/07/15 12:10:05;;;;;;;87.82;13.30;;;30.70;63.10;;;;;;5025251;28;20030;-57
2023/07/15 12:12:31;;;;;;;75.75;12.63;;;30.80;62.70;;;;;;5025204;28;20030;-56
2023/07/15 12:14:56;;;;;;;75.30;10.95;;;30.80;62.50;;;;;;5021020;28;20044;-57
2023/07/15 12:17:22;;;;;;;78.38;11.50;;;30.90;61.90;;;;;;5025179;28;20036;-57
2023/07/15 12:19:48;;;;;;;89.72;11.20;;;30.90;61.30;;;;;;5012319;28;20082;-56
2023/07/15 12:22:13;;;;;;;84.35;11.02;;;31.00;61.00;;;;;;5006648;28;20023;-57
2023/07/15 12:24:39;;;;;;;78.85;10.05;;;31.10;60.60;;;;;;5019225;28;20019;-57
2023/07/15 12:27:05;;;;;;;63.45;10.82;;;31.20;59.90;;;;;;5015001;28;20021;-57
2023/07/15 12:29:30;;;;;;;61.88;9.07;;;31.30;59.50;;;;;;5015454;28;20036;-57
2023/07/15 12:31:56;;;;;;;42.70;7.05;;;31.30;59.50;;;;;;5021466;28;20034;-56
2023/07/15 12:34:21;;;;;;;42.00;6.47;;;31.40;59.00;;;;;;5018911;28;20060;-56
2023/07/15 12:36:47;;;;;;;63.28;8.73;;;31.50;58.70;;;;;;5024936;28;20022;-57
2023/07/15 12:39:13;;;;;;;34.08;6.53;;;31.60;58.90;;;;;;5026220;28;20030;-56